Wetterdaten: Woche 14.06.10 - 20.06.10 (KW24)
Datum Zeit Temp. Innen Temp. Aussen UV X Diff Temp. Feuchte Inne Feuchte Auss Sonnenschein Luftdruck Regen ab 0,1 Wind Sonnenschein Windben
14.06.2010 00:00 20,2 C 13,9 C 0,0 UV-I 0,0 C 51 % 72 % 0 % 1014,5 hPa 0,0 l/m 0,2 km/h (0 Bft) 0,00 h 0,8 km/h (0 Bft)
14.06.2010 01:00 19,8 C 12,8 C 0,0 UV-I 0,0 C 52 % 76 % 0 % 1014,4 hPa 0,0 l/m 0,0 km/h (0 Bft) 0,00 h 0,0 km/h (0 Bft)
14.06.2010 02:00 19,5 C 11,9 C 0,1 UV-I 0,0 C 52 % 80 % 0 % 1014,5 hPa 0,0 l/m 0,0 km/h (0 Bft) 0,00 h 0,0 km/h (0 Bft)
14.06.2010 03:00 19,2 C 12,0 C 0,1 UV-I 0,0 C 53 % 82 % 0 % 1014,3 hPa 0,0 l/m 0,0 km/h (0 Bft) 0,00 h 0,0 km/h (0 Bft)
14.06.2010 04:00 19,1 C 12,2 C 0,1 UV-I 0,0 C 54 % 82 % 0 % 1014,2 hPa 0,0 l/m 0,0 km/h (0 Bft) 0,00 h 0,0 km/h (0 Bft)
14.06.2010 05:00 19,0 C 12,0 C 0,2 UV-I 0,0 C 55 % 83 % 0 % 1014,0 hPa 0,0 l/m 0,0 km/h (0 Bft) 0,00 h 0,0 km/h (0 Bft)
14.06.2010 06:00 19,1 C 12,0 C 0,9 UV-I 0,0 C 55 % 84 % 0 % 1014,4 hPa 0,0 l/m 0,0 km/h (0 Bft) 0,00 h 0,0 km/h (0 Bft)
14.06.2010 07:00 19,4 C 13,0 C 2,3 UV-I 0,0 C 55 % 82 % 0 % 1014,6 hPa 0,0 l/m 1,2 km/h (1 Bft) 0,00 h 3,5 km/h (1 Bft)
14.06.2010 08:00 19,6 C 15,3 C 5,0 UV-I 4,9 C 55 % 75 % 89 % 1015,2 hPa 0,0 l/m 3,6 km/h (1 Bft) 0,50 h 5,2 km/h (1 Bft)
14.06.2010 09:00 19,8 C 17,6 C 11,9 UV-I 5,9 C 55 % 67 % 100 % 1015,7 hPa 0,0 l/m 3,8 km/h (1 Bft) 0,97 h 4,1 km/h (1 Bft)
14.06.2010 10:00 20,0 C 19,6 C 14,8 UV-I 6,0 C 55 % 62 % 100 % 1016,1 hPa 0,0 l/m 4,1 km/h (1 Bft) 0,83 h 6,0 km/h (2 Bft)
14.06.2010 11:00 20,2 C 21,1 C 12,5 UV-I 6,1 C 55 % 54 % 100 % 1016,3 hPa 0,0 l/m 4,3 km/h (1 Bft) 0,87 h 5,5 km/h (1 Bft)
14.06.2010 12:00 20,8 C 22,4 C 9,6 UV-I 5,9 C 55 % 47 % 100 % 1016,5 hPa 0,0 l/m 4,8 km/h (1 Bft) 0,70 h 6,4 km/h (2 Bft)
14.06.2010 13:00 21,5 C 23,8 C 9,5 UV-I 5,4 C 53 % 43 % 100 % 1017,2 hPa 0,0 l/m 5,1 km/h (1 Bft) 0,78 h 6,1 km/h (2 Bft)
14.06.2010 14:00 22,3 C 24,2 C 8,1 UV-I 4,2 C 51 % 40 % 97 % 1017,5 hPa 0,0 l/m 4,4 km/h (1 Bft) 0,97 h 5,8 km/h (2 Bft)
14.06.2010 15:00 22,8 C 22,9 C 5,9 UV-I 2,1 C 49 % 44 % 59 % 1017,6 hPa 0,0 l/m 7,5 km/h (2 Bft) 0,07 h 7,1 km/h (2 Bft)
14.06.2010 16:00 23,2 C 24,0 C 10,1 UV-I 4,4 C 48 % 41 % 99 % 1018,3 hPa 0,0 l/m 9,6 km/h (2 Bft) 0,97 h 12,1 km/h (2 Bft)
14.06.2010 17:00 23,2 C 24,1 C 8,8 UV-I 3,7 C 48 % 39 % 90 % 1017,5 hPa 0,0 l/m 9,2 km/h (2 Bft) 0,77 h 11,4 km/h (2 Bft)
14.06.2010 18:00 23,5 C 23,5 C 4,5 UV-I 2,3 C 47 % 40 % 65 % 1018,0 hPa 0,0 l/m 6,7 km/h (2 Bft) 0,43 h 6,6 km/h (2 Bft)
14.06.2010 19:00 23,3 C 22,9 C 2,8 UV-I 0,3 C 47 % 40 % 9 % 1018,0 hPa 0,0 l/m 4,5 km/h (1 Bft) 0,00 h 4,8 km/h (1 Bft)
14.06.2010 20:00 23,0 C 21,9 C 1,4 UV-I 0,0 C 48 % 43 % 0 % 1018,1 hPa 0,0 l/m 1,1 km/h (0 Bft) 0,00 h 1,6 km/h (1 Bft)
14.06.2010 21:00 22,6 C 20,5 C 0,3 UV-I 0,0 C 49 % 47 % 0 % 1018,6 hPa 0,0 l/m 3,5 km/h (1 Bft) 0,00 h 4,0 km/h (1 Bft)
14.06.2010 22:00 22,2 C 19,0 C 0,0 UV-I 0,0 C 50 % 54 % 0 % 1019,5 hPa 0,0 l/m 5,7 km/h (1 Bft) 0,00 h 5,7 km/h (1 Bft)
14.06.2010 23:00 22,0 C 18,3 C 0,0 UV-I 0,0 C 51 % 58 % 0 % 1020,1 hPa 0,0 l/m 8,1 km/h (2 Bft) 0,00 h 8,2 km/h (2 Bft)
15.06.2010 00:00 21,8 C 17,3 C 0,0 UV-I 0,0 C 51 % 62 % 0 % 1021,0 hPa 0,0 l/m 8,6 km/h (2 Bft) 0,00 h 9,2 km/h (2 Bft)
15.06.2010 01:00 21,6 C 16,3 C 0,0 UV-I 0,0 C 51 % 68 % 0 % 1021,6 hPa 0,0 l/m 10,1 km/h (2 Bft) 0,00 h 12,1 km/h (2 Bft)
15.06.2010 02:00 21,4 C 14,8 C 0,0 UV-I 0,0 C 52 % 77 % 0 % 1021,5 hPa 0,0 l/m 11,6 km/h (2 Bft) 0,00 h 13,2 km/h (3 Bft)
15.06.2010 03:00 21,2 C 13,6 C 0,0 UV-I 0,0 C 53 % 82 % 0 % 1022,2 hPa 0,0 l/m 9,5 km/h (2 Bft) 0,00 h 10,3 km/h (2 Bft)
15.06.2010 04:00 21,0 C 13,1 C 0,0 UV-I 0,0 C 54 % 82 % 0 % 1022,7 hPa 0,0 l/m 13,5 km/h (3 Bft) 0,00 h 12,9 km/h (3 Bft)
15.06.2010 05:00 20,5 C 12,2 C 0,1 UV-I 0,0 C 52 % 80 % 0 % 1022,6 hPa 0,0 l/m 14,9 km/h (3 Bft) 0,00 h 14,9 km/h (3 Bft)
15.06.2010 06:00 20,0 C 11,6 C 0,9 UV-I 0,0 C 50 % 79 % 0 % 1022,7 hPa 0,0 l/m 11,4 km/h (2 Bft) 0,00 h 11,7 km/h (2 Bft)
15.06.2010 07:00 20,0 C 12,0 C 2,2 UV-I 0,2 C 50 % 76 % 6 % 1023,2 hPa 0,0 l/m 10,0 km/h (2 Bft) 0,00 h 10,6 km/h (2 Bft)
15.06.2010 08:00 20,0 C 13,0 C 4,4 UV-I 2,4 C 50 % 72 % 65 % 1023,7 hPa 0,0 l/m 10,9 km/h (2 Bft) 0,20 h 13,7 km/h (3 Bft)
15.06.2010 09:00 20,0 C 14,6 C 10,4 UV-I 4,8 C 49 % 65 % 100 % 1024,4 hPa 0,0 l/m 13,6 km/h (3 Bft) 0,97 h 12,3 km/h (3 Bft)
15.06.2010 10:00 20,2 C 15,8 C 12,2 UV-I 5,2 C 48 % 58 % 100 % 1025,0 hPa 0,0 l/m 10,8 km/h (2 Bft) 0,93 h 11,4 km/h (2 Bft)
15.06.2010 11:00 20,5 C 16,8 C 11,9 UV-I 5,4 C 48 % 55 % 100 % 1025,5 hPa 0,0 l/m 13,3 km/h (3 Bft) 0,87 h 16,3 km/h (3 Bft)
15.06.2010 12:00 20,8 C 17,4 C 9,3 UV-I 4,6 C 49 % 55 % 100 % 1025,8 hPa 0,0 l/m 14,2 km/h (3 Bft) 0,80 h 15,7 km/h (3 Bft)
15.06.2010 13:00 21,3 C 18,2 C 8,8 UV-I 3,8 C 49 % 53 % 99 % 1025,5 hPa 0,0 l/m 16,2 km/h (3 Bft) 0,75 h 17,1 km/h (3 Bft)
15.06.2010 14:00 22,2 C 19,0 C 8,8 UV-I 3,9 C 47 % 50 % 99 % 1025,8 hPa 0,0 l/m 13,8 km/h (3 Bft) 0,87 h 13,8 km/h (3 Bft)
15.06.2010 15:00 24,0 C 19,7 C 8,7 UV-I 3,7 C 43 % 45 % 100 % 1027,1 hPa 0,0 l/m 13,9 km/h (3 Bft) 0,93 h 17,1 km/h (3 Bft)
15.06.2010 16:00 25,4 C 20,1 C 9,9 UV-I 3,7 C 39 % 42 % 100 % 1028,2 hPa 0,0 l/m 13,6 km/h (3 Bft) 0,80 h 15,3 km/h (3 Bft)
15.06.2010 17:00 26,0 C 20,1 C 11,6 UV-I 3,5 C 37 % 41 % 96 % 1027,3 hPa 0,0 l/m 15,8 km/h (3 Bft) 0,68 h 17,7 km/h (3 Bft)
15.06.2010 18:00 25,3 C 19,4 C 4,2 UV-I 2,0 C 37 % 41 % 56 % 1026,1 hPa 0,0 l/m 16,9 km/h (3 Bft) 0,33 h 15,4 km/h (3 Bft)
15.06.2010 19:00 24,0 C 19,1 C 2,9 UV-I 0,0 C 38 % 41 % 0 % 1024,9 hPa 0,0 l/m 13,3 km/h (3 Bft) 0,00 h 14,0 km/h (3 Bft)
15.06.2010 20:00 23,0 C 18,2 C 1,6 UV-I 0,0 C 39 % 43 % 0 % 1024,6 hPa 0,0 l/m 15,0 km/h (3 Bft) 0,00 h 14,9 km/h (3 Bft)
15.06.2010 21:00 22,4 C 16,7 C 0,4 UV-I 0,0 C 40 % 49 % 0 % 1024,8 hPa 0,0 l/m 13,8 km/h (3 Bft) 0,00 h 12,9 km/h (3 Bft)
15.06.2010 22:00 21,9 C 15,3 C 0,0 UV-I 0,0 C 42 % 56 % 0 % 1025,2 hPa 0,0 l/m 11,3 km/h (2 Bft) 0,00 h 11,3 km/h (2 Bft)
15.06.2010 23:00 21,5 C 14,1 C 0,0 UV-I 0,0 C 43 % 62 % 0 % 1025,6 hPa 0,0 l/m 11,5 km/h (2 Bft) 0,00 h 11,3 km/h (2 Bft)
16.06.2010 00:00 21,1 C 13,0 C 0,0 UV-I 0,0 C 44 % 67 % 0 % 1026,0 hPa 0,0 l/m 11,7 km/h (2 Bft) 0,00 h 11,8 km/h (2 Bft)
16.06.2010 01:00 20,8 C 12,0 C 0,1 UV-I 0,0 C 45 % 72 % 0 % 1026,2 hPa 0,0 l/m 10,6 km/h (2 Bft) 0,00 h 10,8 km/h (2 Bft)
16.06.2010 02:00 20,6 C 11,2 C 0,1 UV-I 0,0 C 46 % 77 % 0 % 1025,9 hPa 0,0 l/m 7,7 km/h (2 Bft) 0,00 h 8,1 km/h (2 Bft)
16.06.2010 03:00 20,4 C 10,7 C 0,1 UV-I 0,0 C 47 % 80 % 0 % 1025,6 hPa 0,0 l/m 8,1 km/h (2 Bft) 0,00 h 8,6 km/h (2 Bft)
16.06.2010 04:00 20,2 C 9,8 C 0,1 UV-I 0,0 C 48 % 83 % 0 % 1025,4 hPa 0,0 l/m 8,1 km/h (2 Bft) 0,00 h 8,3 km/h (2 Bft)
16.06.2010 05:00 20,0 C 9,5 C 0,2 UV-I 0,0 C 48 % 86 % 0 % 1025,1 hPa 0,0 l/m 8,7 km/h (2 Bft) 0,00 h 8,4 km/h (2 Bft)
16.06.2010 06:00 20,0 C 9,8 C 0,7 UV-I 0,0 C 49 % 86 % 0 % 1024,8 hPa 0,0 l/m 7,5 km/h (2 Bft) 0,00 h 7,4 km/h (2 Bft)
16.06.2010 07:00 20,0 C 11,4 C 2,1 UV-I 0,5 C 49 % 84 % 14 % 1024,7 hPa 0,0 l/m 2,9 km/h (1 Bft) 0,00 h 4,4 km/h (1 Bft)
16.06.2010 08:00 20,1 C 13,1 C 4,6 UV-I 4,2 C 50 % 79 % 83 % 1024,7 hPa 0,0 l/m 6,0 km/h (2 Bft) 0,30 h 9,1 km/h (2 Bft)
16.06.2010 09:00 20,2 C 14,9 C 12,3 UV-I 6,0 C 50 % 72 % 100 % 1024,7 hPa 0,0 l/m 7,4 km/h (2 Bft) 0,87 h 9,5 km/h (2 Bft)
16.06.2010 10:00 20,2 C 16,4 C 15,1 UV-I 5,7 C 50 % 64 % 100 % 1024,1 hPa 0,0 l/m 10,6 km/h (2 Bft) 1,00 h 10,8 km/h (2 Bft)
16.06.2010 11:00 20,2 C 18,4 C 12,6 UV-I 5,3 C 49 % 54 % 100 % 1023,6 hPa 0,0 l/m 10,5 km/h (2 Bft) 0,90 h 10,6 km/h (2 Bft)
16.06.2010 12:00 20,5 C 20,5 C 8,8 UV-I 4,6 C 49 % 47 % 100 % 1023,4 hPa 0,0 l/m 10,5 km/h (2 Bft) 0,77 h 11,9 km/h (2 Bft)
16.06.2010 13:00 21,2 C 22,1 C 8,4 UV-I 4,1 C 48 % 42 % 100 % 1023,3 hPa 0,0 l/m 9,4 km/h (2 Bft) 0,78 h 11,0 km/h (2 Bft)
16.06.2010 14:00 22,4 C 23,2 C 8,3 UV-I 3,6 C 45 % 38 % 99 % 1023,3 hPa 0,0 l/m 10,1 km/h (2 Bft) 0,97 h 10,5 km/h (2 Bft)
16.06.2010 15:00 24,3 C 24,1 C 8,6 UV-I 3,5 C 40 % 35 % 97 % 1024,5 hPa 0,0 l/m 10,0 km/h (2 Bft) 0,93 h 11,5 km/h (2 Bft)
16.06.2010 16:00 25,9 C 24,5 C 10,4 UV-I 3,5 C 37 % 33 % 96 % 1025,4 hPa 0,0 l/m 10,9 km/h (2 Bft) 0,72 h 15,3 km/h (3 Bft)
16.06.2010 17:00 26,6 C 24,5 C 13,4 UV-I 3,8 C 35 % 33 % 100 % 1024,4 hPa 0,0 l/m 9,4 km/h (2 Bft) 0,63 h 9,7 km/h (2 Bft)
16.06.2010 18:00 26,0 C 23,7 C 4,3 UV-I 2,6 C 35 % 34 % 65 % 1023,2 hPa 0,0 l/m 9,2 km/h (2 Bft) 0,47 h 9,8 km/h (2 Bft)
16.06.2010 19:00 24,7 C 22,8 C 2,9 UV-I 0,0 C 37 % 36 % 0 % 1021,5 hPa 0,0 l/m 7,7 km/h (2 Bft) 0,00 h 8,7 km/h (2 Bft)
16.06.2010 20:00 24,0 C 21,7 C 1,7 UV-I 0,0 C 38 % 38 % 0 % 1021,2 hPa 0,0 l/m 6,3 km/h (2 Bft) 0,00 h 7,1 km/h (2 Bft)
16.06.2010 21:00 23,4 C 20,3 C 0,5 UV-I 0,0 C 39 % 42 % 0 % 1021,2 hPa 0,0 l/m 3,1 km/h (1 Bft) 0,00 h 3,7 km/h (1 Bft)
16.06.2010 22:00 22,8 C 18,8 C 0,1 UV-I 0,0 C 41 % 47 % 0 % 1021,6 hPa 0,0 l/m 1,1 km/h (0 Bft) 0,00 h 1,4 km/h (1 Bft)
16.06.2010 23:00 22,5 C 17,8 C 0,1 UV-I 0,0 C 42 % 51 % 0 % 1021,8 hPa 0,0 l/m 1,1 km/h (1 Bft) 0,00 h 1,8 km/h (1 Bft)
17.06.2010 00:00 22,2 C 17,1 C 0,1 UV-I 0,0 C 43 % 54 % 0 % 1021,9 hPa 0,0 l/m 1,1 km/h (1 Bft) 0,00 h 2,1 km/h (1 Bft)
17.06.2010 01:00 22,1 C 16,3 C 0,1 UV-I 0,0 C 43 % 57 % 0 % 1022,0 hPa 0,0 l/m 0,4 km/h (0 Bft) 0,00 h 0,5 km/h (0 Bft)
17.06.2010 02:00 21,9 C 15,6 C 0,1 UV-I 0,0 C 45 % 60 % 0 % 1021,5 hPa 0,0 l/m 0,6 km/h (0 Bft) 0,00 h 1,4 km/h (1 Bft)
17.06.2010 03:00 21,7 C 15,2 C 0,1 UV-I 0,0 C 45 % 62 % 0 % 1021,1 hPa 0,0 l/m 1,8 km/h (1 Bft) 0,00 h 2,6 km/h (1 Bft)
17.06.2010 04:00 21,5 C 13,9 C 0,1 UV-I 0,0 C 46 % 66 % 0 % 1020,9 hPa 0,0 l/m 5,1 km/h (1 Bft) 0,00 h 5,7 km/h (1 Bft)
17.06.2010 05:00 21,2 C 13,0 C 0,2 UV-I 0,0 C 47 % 70 % 0 % 1020,8 hPa 0,0 l/m 3,1 km/h (1 Bft) 0,00 h 2,9 km/h (1 Bft)
17.06.2010 06:00 21,0 C 13,1 C 1,1 UV-I 0,0 C 47 % 71 % 0 % 1020,7 hPa 0,0 l/m 1,5 km/h (1 Bft) 0,00 h 2,3 km/h (1 Bft)
17.06.2010 07:00 21,1 C 14,5 C 2,3 UV-I 0,0 C 47 % 68 % 0 % 1021,0 hPa 0,0 l/m 2,0 km/h (1 Bft) 0,00 h 2,5 km/h (1 Bft)
17.06.2010 08:00 21,2 C 16,5 C 4,5 UV-I 3,3 C 47 % 62 % 66 % 1021,0 hPa 0,0 l/m 2,9 km/h (1 Bft) 0,37 h 4,3 km/h (1 Bft)
17.06.2010 09:00 21,2 C 19,6 C 14,5 UV-I 6,7 C 47 % 51 % 100 % 1020,5 hPa 0,0 l/m 5,4 km/h (1 Bft) 0,90 h 6,3 km/h (2 Bft)
17.06.2010 10:00 21,5 C 20,7 C 13,5 UV-I 5,1 C 47 % 46 % 100 % 1020,7 hPa 0,0 l/m 7,5 km/h (2 Bft) 1,00 h 7,6 km/h (2 Bft)
17.06.2010 11:00 21,8 C 22,1 C 11,7 UV-I 5,1 C 46 % 42 % 100 % 1020,4 hPa 0,0 l/m 8,4 km/h (2 Bft) 1,00 h 8,6 km/h (2 Bft)
17.06.2010 12:00 22,2 C 22,6 C 9,2 UV-I 4,0 C 44 % 40 % 98 % 1020,2 hPa 0,0 l/m 10,9 km/h (2 Bft) 0,90 h 10,8 km/h (2 Bft)
17.06.2010 13:00 22,7 C 23,5 C 9,4 UV-I 4,2 C 43 % 38 % 100 % 1020,1 hPa 0,0 l/m 9,6 km/h (2 Bft) 1,00 h 10,9 km/h (2 Bft)
17.06.2010 14:00 23,3 C 24,0 C 8,5 UV-I 3,0 C 42 % 36 % 85 % 1019,9 hPa 0,0 l/m 8,5 km/h (2 Bft) 0,67 h 8,8 km/h (2 Bft)
17.06.2010 15:00 24,4 C 25,1 C 9,6 UV-I 3,9 C 40 % 34 % 99 % 1020,2 hPa 0,0 l/m 8,3 km/h (2 Bft) 0,97 h 8,6 km/h (2 Bft)
17.06.2010 16:00 25,4 C 25,3 C 9,6 UV-I 3,6 C 38 % 35 % 97 % 1020,4 hPa 0,0 l/m 7,4 km/h (2 Bft) 0,87 h 8,0 km/h (2 Bft)
17.06.2010 17:00 26,2 C 25,7 C 10,9 UV-I 4,0 C 36 % 34 % 96 % 1020,1 hPa 0,0 l/m 7,9 km/h (2 Bft) 0,80 h 7,6 km/h (2 Bft)
17.06.2010 18:00 25,7 C 24,4 C 3,9 UV-I 0,9 C 37 % 36 % 27 % 1019,0 hPa 0,0 l/m 5,7 km/h (1 Bft) 0,00 h 7,2 km/h (2 Bft)
17.06.2010 19:00 24,9 C 23,8 C 2,8 UV-I 0,2 C 39 % 36 % 5 % 1018,1 hPa 0,0 l/m 5,9 km/h (2 Bft) 0,00 h 5,8 km/h (2 Bft)
17.06.2010 20:00 24,4 C 23,0 C 1,5 UV-I 0,0 C 40 % 39 % 0 % 1017,8 hPa 0,0 l/m 3,3 km/h (1 Bft) 0,00 h 2,9 km/h (1 Bft)
17.06.2010 21:00 24,0 C 21,4 C 0,4 UV-I 0,0 C 41 % 45 % 0 % 1017,7 hPa 0,0 l/m 0,2 km/h (0 Bft) 0,00 h 0,3 km/h (0 Bft)
17.06.2010 22:00 23,4 C 18,9 C 0,1 UV-I 0,0 C 43 % 53 % 0 % 1018,0 hPa 0,0 l/m 0,0 km/h (0 Bft) 0,00 h 0,0 km/h (0 Bft)
17.06.2010 23:00 23,0 C 16,7 C 0,1 UV-I 0,0 C 44 % 62 % 0 % 1018,1 hPa 0,0 l/m 0,2 km/h (0 Bft) 0,00 h 0,3 km/h (0 Bft)
18.06.2010 00:00 22,7 C 16,5 C 0,1 UV-I 0,0 C 45 % 72 % 0 % 1018,2 hPa 0,0 l/m 7,9 km/h (2 Bft) 0,00 h 9,0 km/h (2 Bft)
18.06.2010 01:00 22,5 C 16,1 C 0,1 UV-I 0,0 C 47 % 73 % 0 % 1018,1 hPa 0,0 l/m 7,3 km/h (2 Bft) 0,00 h 7,7 km/h (2 Bft)
18.06.2010 02:00 22,3 C 15,0 C 0,1 UV-I 0,0 C 47 % 75 % 0 % 1017,7 hPa 0,0 l/m 4,4 km/h (1 Bft) 0,00 h 4,5 km/h (1 Bft)
18.06.2010 03:00 22,2 C 13,6 C 0,1 UV-I 0,0 C 48 % 79 % 0 % 1017,5 hPa 0,0 l/m 3,7 km/h (1 Bft) 0,00 h 4,8 km/h (1 Bft)
18.06.2010 04:00 21,9 C 12,5 C 0,1 UV-I 0,0 C 49 % 83 % 0 % 1017,0 hPa 0,0 l/m 6,1 km/h (2 Bft) 0,00 h 6,7 km/h (2 Bft)
18.06.2010 05:00 21,5 C 11,7 C 0,2 UV-I 0,0 C 50 % 86 % 0 % 1016,8 hPa 0,0 l/m 7,0 km/h (2 Bft) 0,00 h 7,2 km/h (2 Bft)
18.06.2010 06:00 21,3 C 11,6 C 0,4 UV-I 0,0 C 50 % 88 % 0 % 1017,1 hPa 0,0 l/m 13,1 km/h (3 Bft) 0,00 h 14,3 km/h (3 Bft)
18.06.2010 07:00 21,2 C 12,0 C 0,9 UV-I 0,1 C 51 % 87 % 4 % 1017,3 hPa 0,0 l/m 11,2 km/h (2 Bft) 0,00 h 10,4 km/h (2 Bft)
18.06.2010 08:00 21,2 C 12,0 C 1,2 UV-I 0,3 C 51 % 86 % 9 % 1017,4 hPa 0,0 l/m 10,6 km/h (2 Bft) 0,00 h 9,9 km/h (2 Bft)
18.06.2010 09:00 21,2 C 12,2 C 2,1 UV-I 0,7 C 51 % 84 % 21 % 1017,7 hPa 0,0 l/m 10,0 km/h (2 Bft) 0,00 h 12,8 km/h (3 Bft)
18.06.2010 10:00 21,3 C 12,9 C 2,9 UV-I 1,1 C 51 % 80 % 31 % 1017,9 hPa 0,0 l/m 11,6 km/h (2 Bft) 0,00 h 11,9 km/h (2 Bft)
18.06.2010 11:00 21,5 C 13,3 C 3,2 UV-I 1,3 C 52 % 79 % 38 % 1017,9 hPa 0,0 l/m 10,0 km/h (2 Bft) 0,00 h 10,7 km/h (2 Bft)
18.06.2010 12:00 21,6 C 14,2 C 5,0 UV-I 2,1 C 52 % 76 % 57 % 1018,0 hPa 0,0 l/m 7,0 km/h (2 Bft) 0,13 h 7,7 km/h (2 Bft)
18.06.2010 13:00 22,2 C 16,7 C 8,6 UV-I 4,8 C 51 % 68 % 100 % 1017,9 hPa 0,0 l/m 5,9 km/h (2 Bft) 0,93 h 6,0 km/h (2 Bft)
18.06.2010 14:00 22,9 C 18,5 C 8,0 UV-I 3,7 C 49 % 61 % 95 % 1017,5 hPa 0,0 l/m 11,8 km/h (2 Bft) 0,70 h 13,6 km/h (3 Bft)
18.06.2010 15:00 23,5 C 18,8 C 7,0 UV-I 2,9 C 47 % 61 % 81 % 1017,6 hPa 0,0 l/m 12,9 km/h (3 Bft) 0,33 h 14,5 km/h (3 Bft)
18.06.2010 16:00 23,4 C 17,4 C 3,2 UV-I 1,0 C 47 % 69 % 29 % 1017,2 hPa 0,0 l/m 12,7 km/h (3 Bft) 0,00 h 14,0 km/h (3 Bft)
18.06.2010 17:00 23,1 C 17,2 C 3,1 UV-I 1,0 C 48 % 72 % 29 % 1016,7 hPa 0,0 l/m 9,1 km/h (2 Bft) 0,00 h 9,2 km/h (2 Bft)
18.06.2010 18:00 22,8 C 16,7 C 2,9 UV-I 0,8 C 49 % 77 % 21 % 1016,2 hPa 0,0 l/m 7,7 km/h (2 Bft) 0,00 h 9,6 km/h (2 Bft)
18.06.2010 19:00 22,6 C 16,7 C 1,2 UV-I 0,2 C 50 % 73 % 7 % 1015,8 hPa 0,0 l/m 8,4 km/h (2 Bft) 0,00 h 9,4 km/h (2 Bft)
18.06.2010 20:00 22,1 C 15,6 C 0,5 UV-I 0,0 C 50 % 66 % 0 % 1015,4 hPa 0,0 l/m 9,1 km/h (2 Bft) 0,00 h 13,5 km/h (3 Bft)
18.06.2010 21:00 21,6 C 14,5 C 0,2 UV-I 0,0 C 49 % 67 % 0 % 1015,2 hPa 0,0 l/m 8,8 km/h (2 Bft) 0,00 h 9,1 km/h (2 Bft)
18.06.2010 22:00 21,2 C 13,6 C 0,1 UV-I 0,0 C 48 % 66 % 0 % 1015,2 hPa 0,0 l/m 8,5 km/h (2 Bft) 0,00 h 10,6 km/h (2 Bft)
18.06.2010 23:00 20,8 C 12,9 C 0,1 UV-I 0,0 C 49 % 69 % 0 % 1015,1 hPa 0,0 l/m 6,8 km/h (2 Bft) 0,00 h 8,2 km/h (2 Bft)
19.06.2010 00:00 20,6 C 12,5 C 0,1 UV-I 0,0 C 48 % 69 % 0 % 1014,7 hPa 0,0 l/m 4,1 km/h (1 Bft) 0,00 h 5,0 km/h (1 Bft)
19.06.2010 01:00 20,4 C 11,9 C 0,1 UV-I 0,0 C 48 % 73 % 0 % 1014,1 hPa 0,0 l/m 1,3 km/h (1 Bft) 0,00 h 0,9 km/h (0 Bft)
19.06.2010 02:00 20,3 C 11,7 C 0,1 UV-I 0,0 C 49 % 76 % 0 % 1013,6 hPa 0,0 l/m 1,2 km/h (1 Bft) 0,00 h 2,2 km/h (1 Bft)
19.06.2010 03:00 20,2 C 11,3 C 0,1 UV-I 0,0 C 49 % 76 % 0 % 1013,2 hPa 0,0 l/m 1,2 km/h (1 Bft) 0,00 h 1,7 km/h (1 Bft)
19.06.2010 04:00 20,0 C 11,3 C 0,1 UV-I 0,0 C 48 % 76 % 0 % 1012,6 hPa 0,0 l/m 1,0 km/h (0 Bft) 0,00 h 1,3 km/h (1 Bft)
19.06.2010 05:00 19,9 C 11,0 C 0,2 UV-I 0,0 C 48 % 77 % 0 % 1012,2 hPa 0,0 l/m 0,9 km/h (0 Bft) 0,00 h 1,0 km/h (0 Bft)
19.06.2010 06:00 19,8 C 10,9 C 0,6 UV-I 0,0 C 49 % 78 % 0 % 1012,1 hPa 0,0 l/m 1,7 km/h (1 Bft) 0,00 h 2,2 km/h (1 Bft)
19.06.2010 07:00 19,8 C 11,2 C 2,4 UV-I 0,3 C 49 % 78 % 9 % 1011,8 hPa 0,0 l/m 2,3 km/h (1 Bft) 0,00 h 3,9 km/h (1 Bft)
19.06.2010 08:00 19,9 C 12,3 C 3,3 UV-I 1,4 C 49 % 73 % 40 % 1011,4 hPa 0,0 l/m 7,2 km/h (2 Bft) 0,00 h 9,6 km/h (2 Bft)
19.06.2010 09:00 20,1 C 13,1 C 5,2 UV-I 2,6 C 49 % 67 % 71 % 1011,4 hPa 0,0 l/m 6,6 km/h (2 Bft) 0,33 h 7,0 km/h (2 Bft)
19.06.2010 10:00 20,3 C 13,1 C 2,9 UV-I 1,2 C 47 % 66 % 33 % 1011,3 hPa 0,0 l/m 5,9 km/h (2 Bft) 0,00 h 7,8 km/h (2 Bft)
19.06.2010 11:00 20,2 C 13,6 C 5,7 UV-I 2,3 C 46 % 67 % 61 % 1011,1 hPa 0,0 l/m 7,2 km/h (2 Bft) 0,27 h 8,8 km/h (2 Bft)
19.06.2010 12:00 20,4 C 15,2 C 7,3 UV-I 4,6 C 45 % 59 % 90 % 1010,8 hPa 0,0 l/m 7,2 km/h (2 Bft) 0,73 h 9,4 km/h (2 Bft)
19.06.2010 13:00 20,4 C 15,0 C 5,4 UV-I 2,3 C 44 % 60 % 65 % 1010,7 hPa 0,0 l/m 7,1 km/h (2 Bft) 0,03 h 9,3 km/h (2 Bft)
19.06.2010 14:00 20,7 C 14,9 C 4,9 UV-I 2,6 C 45 % 64 % 59 % 1010,6 hPa 0,4 l/m 8,9 km/h (2 Bft) 0,43 h 11,5 km/h (2 Bft)
19.06.2010 15:00 20,9 C 13,6 C 6,6 UV-I 1,9 C 49 % 76 % 53 % 1010,8 hPa 0,1 l/m 5,1 km/h (1 Bft) 0,43 h 7,6 km/h (2 Bft)
19.06.2010 16:00 21,2 C 13,2 C 4,2 UV-I 0,9 C 48 % 76 % 26 % 1011,0 hPa 0,1 l/m 7,1 km/h (2 Bft) 0,07 h 6,1 km/h (2 Bft)
19.06.2010 17:00 21,6 C 14,5 C 5,3 UV-I 2,1 C 46 % 67 % 56 % 1011,3 hPa 0,0 l/m 6,2 km/h (2 Bft) 0,40 h 9,6 km/h (2 Bft)
19.06.2010 18:00 21,2 C 14,5 C 3,2 UV-I 1,0 C 43 % 62 % 28 % 1010,7 hPa 0,0 l/m 9,2 km/h (2 Bft) 0,00 h 10,1 km/h (2 Bft)
19.06.2010 19:00 20,7 C 14,0 C 2,3 UV-I 0,5 C 43 % 62 % 13 % 1010,4 hPa 0,0 l/m 9,7 km/h (2 Bft) 0,00 h 13,9 km/h (3 Bft)
19.06.2010 20:00 20,1 C 13,1 C 0,4 UV-I 0,0 C 43 % 63 % 0 % 1010,7 hPa 0,0 l/m 7,6 km/h (2 Bft) 0,00 h 8,7 km/h (2 Bft)
19.06.2010 21:00 19,4 C 12,6 C 0,2 UV-I 0,0 C 45 % 66 % 0 % 1010,4 hPa 0,0 l/m 3,8 km/h (1 Bft) 0,00 h 5,1 km/h (1 Bft)
19.06.2010 22:00 18,9 C 11,9 C 0,1 UV-I 0,0 C 45 % 69 % 0 % 1010,7 hPa 0,0 l/m 2,5 km/h (1 Bft) 0,00 h 2,2 km/h (1 Bft)
19.06.2010 23:00 18,6 C 11,6 C 0,0 UV-I 0,0 C 47 % 71 % 0 % 1010,7 hPa 0,0 l/m 3,5 km/h (1 Bft) 0,00 h 5,0 km/h (1 Bft)
20.06.2010 00:00 18,3 C 11,1 C 0,0 UV-I 0,0 C 48 % 76 % 0 % 1010,7 hPa 0,0 l/m 3,5 km/h (1 Bft) 0,00 h 4,1 km/h (1 Bft)
20.06.2010 01:00 18,0 C 10,7 C 0,1 UV-I 0,0 C 50 % 79 % 0 % 1010,6 hPa 0,0 l/m 3,1 km/h (1 Bft) 0,00 h 4,0 km/h (1 Bft)
20.06.2010 02:00 17,8 C 10,6 C 0,0 UV-I 0,0 C 52 % 82 % 0 % 1010,6 hPa 0,0 l/m 3,6 km/h (1 Bft) 0,00 h 4,4 km/h (1 Bft)
20.06.2010 03:00 17,7 C 10,5 C 0,0 UV-I 0,0 C 53 % 83 % 0 % 1010,8 hPa 0,0 l/m 2,7 km/h (1 Bft) 0,00 h 4,4 km/h (1 Bft)
20.06.2010 04:00 17,6 C 10,4 C 0,0 UV-I 0,0 C 54 % 84 % 0 % 1010,9 hPa 0,0 l/m 2,2 km/h (1 Bft) 0,00 h 3,8 km/h (1 Bft)
20.06.2010 05:00 17,4 C 9,7 C 0,1 UV-I 0,0 C 56 % 87 % 0 % 1011,3 hPa 1,4 l/m 1,5 km/h (1 Bft) 0,00 h 1,4 km/h (1 Bft)
20.06.2010 06:00 17,3 C 9,6 C 0,4 UV-I 0,0 C 58 % 91 % 0 % 1011,8 hPa 0,2 l/m 0,9 km/h (0 Bft) 0,00 h 1,3 km/h (1 Bft)
20.06.2010 07:00 17,7 C 10,1 C 1,3 UV-I 0,2 C 58 % 92 % 4 % 1012,5 hPa 0,0 l/m 2,5 km/h (1 Bft) 0,00 h 2,8 km/h (1 Bft)
20.06.2010 08:00 17,9 C 10,6 C 3,3 UV-I 1,9 C 57 % 91 % 41 % 1013,4 hPa 0,0 l/m 2,6 km/h (1 Bft) 0,30 h 3,6 km/h (1 Bft)
20.06.2010 09:00 18,3 C 11,8 C 6,1 UV-I 3,5 C 56 % 86 % 96 % 1013,9 hPa 0,0 l/m 4,9 km/h (1 Bft) 0,83 h 8,2 km/h (2 Bft)
20.06.2010 10:00 18,7 C 12,9 C 8,2 UV-I 4,2 C 55 % 79 % 96 % 1014,5 hPa 0,0 l/m 7,1 km/h (2 Bft) 0,77 h 8,0 km/h (2 Bft)
20.06.2010 11:00 19,1 C 14,0 C 6,8 UV-I 3,5 C 52 % 72 % 89 % 1015,3 hPa 0,0 l/m 6,4 km/h (2 Bft) 0,57 h 6,5 km/h (2 Bft)
20.06.2010 12:00 19,5 C 14,5 C 5,8 UV-I 2,5 C 51 % 69 % 69 % 1016,0 hPa 0,0 l/m 8,5 km/h (2 Bft) 0,13 h 7,8 km/h (2 Bft)
20.06.2010 13:00 19,8 C 15,3 C 6,8 UV-I 3,3 C 50 % 65 % 79 % 1016,4 hPa 0,0 l/m 8,3 km/h (2 Bft) 0,57 h 9,2 km/h (2 Bft)
20.06.2010 14:00 20,2 C 15,8 C 7,0 UV-I 3,2 C 50 % 64 % 83 % 1017,0 hPa 0,0 l/m 5,8 km/h (2 Bft) 0,63 h 6,2 km/h (2 Bft)
20.06.2010 15:00 20,4 C 15,8 C 4,8 UV-I 1,8 C 48 % 62 % 51 % 1017,3 hPa 0,0 l/m 6,1 km/h (2 Bft) 0,03 h 7,6 km/h (2 Bft)
20.06.2010 16:00 20,4 C 16,3 C 5,5 UV-I 2,2 C 48 % 59 % 63 % 1017,6 hPa 0,0 l/m 9,0 km/h (2 Bft) 0,27 h 10,0 km/h (2 Bft)
20.06.2010 17:00 20,4 C 15,7 C 3,1 UV-I 1,0 C 48 % 63 % 28 % 1017,9 hPa 0,0 l/m 10,6 km/h (2 Bft) 0,00 h 11,9 km/h (2 Bft)
20.06.2010 18:00 20,2 C 14,9 C 2,0 UV-I 0,4 C 50 % 66 % 12 % 1018,2 hPa 0,0 l/m 9,7 km/h (2 Bft) 0,00 h 10,7 km/h (2 Bft)
20.06.2010 19:00 20,0 C 14,4 C 1,6 UV-I 0,2 C 50 % 67 % 6 % 1018,7 hPa 0,0 l/m 11,5 km/h (2 Bft) 0,00 h 12,4 km/h (3 Bft)
20.06.2010 20:00 19,7 C 13,5 C 0,7 UV-I 0,0 C 51 % 71 % 0 % 1019,1 hPa 0,0 l/m 10,2 km/h (2 Bft) 0,00 h 10,3 km/h (2 Bft)
20.06.2010 21:00 19,4 C 12,6 C 0,2 UV-I 0,0 C 51 % 73 % 0 % 1019,7 hPa 0,0 l/m 7,6 km/h (2 Bft) 0,00 h 8,4 km/h (2 Bft)
20.06.2010 22:00 19,2 C 12,2 C 0,1 UV-I 0,0 C 52 % 73 % 0 % 1020,3 hPa 0,0 l/m 3,9 km/h (1 Bft) 0,00 h 4,3 km/h (1 Bft)
20.06.2010 23:00 19,2 C 12,0 C 0,1 UV-I 0,0 C 52 % 74 % 0 % 1020,5 hPa 0,0 l/m 0,9 km/h (0 Bft) 0,00 h 1,4 km/h (1 Bft)
Min-Datum _ 20.06.10 16.06.10 14.06.10 14.06.10 16.06.10 16.06.10 14.06.10 19.06.10 - 14.06.10 - 14.06.10
_ Min-Zeit 05:42 05:40 00:00 00:00 17:03 15:46 00:00 16:52 - 00:00 - 00:00
Minimum _ 17,2 C 9,3 C 0,0 UV-I 0,0 C 35 % 32 % 0 % 1010,2 hPa - 0,0 km/h (0 Bft) - 0,0 km/h (0 Bft)
Max-Datum _ 16.06.10 17.06.10 17.06.10 19.06.10 20.06.10 20.06.10 14.06.10 15.06.10 20.06.10 15.06.10 14.06.10 16.06.10
_ Max-Zeit 17:18 17:38 09:58 12:14 06:20 06:56 08:15 16:52 05:02 18:46 08:15 16:38
Maximum _ 26,6 C 26,1 C 17,9 UV-I 7,8 C 58 % 93 % 100 % 1029,4 hPa 1,4 l/m 20,9 km/h
S-SW (4 Bft)
0,03 h 38,3 km/h
O-SO (5 Bft)
Durchschnitt _ 21,3 C 16,0 C 3,7 UV-I 1,5 C 48 % 64 % 35 % 1018,4 hPa #2,2 l/m 6,9 km/h (2 Bft) #41:41 h 7,7 km/h (2 Bft)
© 2012 W. Hausmann